sensor_id;sensor_type;location;lat;lon;timestamp;P1;durP1;ratioP1;P2;durP2;ratioP2
18499;SDS011;9379;52.134;11.576;2023-08-01T00:00:26;1.30;;;1.00;;
18499;SDS011;9379;52.134;11.576;2023-08-01T00:02:53;0.95;;;0.80;;
18499;SDS011;9379;52.134;11.576;2023-08-01T00:05:20;1.58;;;1.13;;
18499;SDS011;9379;52.134;11.576;2023-08-01T00:07:48;1.88;;;1.77;;
18499;SDS011;9379;52.134;11.576;2023-08-01T00:10:15;1.20;;;1.10;;
18499;SDS011;9379;52.134;11.576;2023-08-01T00:12:42;0.75;;;0.63;;
18499;SDS011;9379;52.134;11.576;2023-08-01T00:15:09;1.20;;;1.02;;
18499;SDS011;9379;52.134;11.576;2023-08-01T00:17:36;1.08;;;0.80;;
18499;SDS011;9379;52.134;11.576;2023-08-01T00:20:03;3.08;;;1.00;;
18499;SDS011;9379;52.134;11.576;2023-08-01T00:22:31;1.55;;;0.77;;
18499;SDS011;9379;52.134;11.576;2023-08-01T00:24:59;1.88;;;1.02;;
18499;SDS011;9379;52.134;11.576;2023-08-01T00:27:26;1.20;;;0.93;;
18499;SDS011;9379;52.134;11.576;2023-08-01T00:29:53;0.63;;;0.63;;
18499;SDS011;9379;52.134;11.576;2023-08-01T00:32:20;0.65;;;0.60;;
18499;SDS011;9379;52.134;11.576;2023-08-01T00:34:48;2.58;;;1.17;;
18499;SDS011;9379;52.134;11.576;2023-08-01T00:37:16;1.00;;;0.88;;
18499;SDS011;9379;52.134;11.576;2023-08-01T00:39:44;0.90;;;0.77;;
18499;SDS011;9379;52.134;11.576;2023-08-01T00:42:12;3.03;;;1.25;;
18499;SDS011;9379;52.134;11.576;2023-08-01T00:44:39;1.13;;;0.45;;
18499;SDS011;9379;52.134;11.576;2023-08-01T00:47:06;0.85;;;0.85;;
18499;SDS011;9379;52.134;11.576;2023-08-01T00:49:33;0.60;;;0.43;;
18499;SDS011;9379;52.134;11.576;2023-08-01T00:52:00;1.20;;;1.10;;
18499;SDS011;9379;52.134;11.576;2023-08-01T00:54:27;1.33;;;0.80;;
18499;SDS011;9379;52.134;11.576;2023-08-01T00:56:55;1.20;;;1.15;;
18499;SDS011;9379;52.134;11.576;2023-08-01T00:59:23;1.23;;;1.13;;
18499;SDS011;9379;52.134;11.576;2023-08-01T01:01:50;1.23;;;0.80;;
18499;SDS011;9379;52.134;11.576;2023-08-01T01:04:17;0.65;;;0.55;;
18499;SDS011;9379;52.134;11.576;2023-08-01T01:06:44;0.57;;;0.57;;
18499;SDS011;9379;52.134;11.576;2023-08-01T01:09:15;0.70;;;0.70;;
18499;SDS011;9379;52.134;11.576;2023-08-01T01:11:43;0.93;;;0.88;;
18499;SDS011;9379;52.134;11.576;2023-08-01T01:14:09;0.88;;;0.73;;
18499;SDS011;9379;52.134;11.576;2023-08-01T01:16:38;1.27;;;0.60;;
18499;SDS011;9379;52.134;11.576;2023-08-01T01:19:06;1.45;;;0.60;;
18499;SDS011;9379;52.134;11.576;2023-08-01T01:21:35;1.05;;;1.05;;
18499;SDS011;9379;52.134;11.576;2023-08-01T01:24:05;0.90;;;0.90;;
18499;SDS011;9379;52.134;11.576;2023-08-01T01:26:33;2.53;;;1.30;;
18499;SDS011;9379;52.134;11.576;2023-08-01T01:29:00;0.55;;;0.55;;
18499;SDS011;9379;52.134;11.576;2023-08-01T01:31:29;0.50;;;0.50;;
18499;SDS011;9379;52.134;11.576;2023-08-01T01:33:56;1.10;;;0.45;;
18499;SDS011;9379;52.134;11.576;2023-08-01T01:36:24;2.42;;;0.80;;
18499;SDS011;9379;52.134;11.576;2023-08-01T01:38:52;0.50;;;0.50;;
18499;SDS011;9379;52.134;11.576;2023-08-01T01:41:18;0.95;;;0.88;;
18499;SDS011;9379;52.134;11.576;2023-08-01T01:43:45;0.52;;;0.52;;
18499;SDS011;9379;52.134;11.576;2023-08-01T01:46:12;1.83;;;0.75;;
18499;SDS011;9379;52.134;11.576;2023-08-01T01:48:43;0.68;;;0.55;;
18499;SDS011;9379;52.134;11.576;2023-08-01T01:51:10;0.80;;;0.57;;
18499;SDS011;9379;52.134;11.576;2023-08-01T01:53:36;0.60;;;0.60;;
18499;SDS011;9379;52.134;11.576;2023-08-01T01:56:05;0.80;;;0.63;;
18499;SDS011;9379;52.134;11.576;2023-08-01T01:58:31;1.08;;;0.63;;
18499;SDS011;9379;52.134;11.576;2023-08-01T02:00:58;1.95;;;1.70;;
18499;SDS011;9379;52.134;11.576;2023-08-01T02:03:25;1.13;;;1.02;;
18499;SDS011;9379;52.134;11.576;2023-08-01T02:05:52;0.82;;;0.63;;
18499;SDS011;9379;52.134;11.576;2023-08-01T02:08:18;1.05;;;0.93;;
18499;SDS011;9379;52.134;11.576;2023-08-01T02:10:45;1.05;;;0.80;;
18499;SDS011;9379;52.134;11.576;2023-08-01T02:13:13;1.25;;;1.15;;
18499;SDS011;9379;52.134;11.576;2023-08-01T02:15:40;0.63;;;0.63;;
18499;SDS011;9379;52.134;11.576;2023-08-01T02:18:07;1.58;;;0.90;;
18499;SDS011;9379;52.134;11.576;2023-08-01T02:20:33;0.70;;;0.70;;
18499;SDS011;9379;52.134;11.576;2023-08-01T02:23:00;2.25;;;0.75;;
18499;SDS011;9379;52.134;11.576;2023-08-01T02:25:27;3.20;;;2.13;;
18499;SDS011;9379;52.134;11.576;2023-08-01T02:27:54;0.80;;;0.80;;
18499;SDS011;9379;52.134;11.576;2023-08-01T02:30:22;4.13;;;1.10;;
18499;SDS011;9379;52.134;11.576;2023-08-01T02:32:49;1.08;;;0.90;;
18499;SDS011;9379;52.134;11.576;2023-08-01T02:35:15;0.63;;;0.55;;
18499;SDS011;9379;52.134;11.576;2023-08-01T02:37:42;0.77;;;0.70;;
18499;SDS011;9379;52.134;11.576;2023-08-01T02:40:09;1.33;;;1.00;;
18499;SDS011;9379;52.134;11.576;2023-08-01T02:42:37;0.80;;;0.80;;
18499;SDS011;9379;52.134;11.576;2023-08-01T02:45:04;2.00;;;1.42;;
18499;SDS011;9379;52.134;11.576;2023-08-01T02:47:33;0.80;;;0.80;;
18499;SDS011;9379;52.134;11.576;2023-08-01T02:49:59;0.93;;;0.60;;
18499;SDS011;9379;52.134;11.576;2023-08-01T02:52:26;1.40;;;0.80;;
18499;SDS011;9379;52.134;11.576;2023-08-01T02:54:53;2.08;;;1.30;;
18499;SDS011;9379;52.134;11.576;2023-08-01T02:57:20;0.70;;;0.70;;
18499;SDS011;9379;52.134;11.576;2023-08-01T02:59:49;0.70;;;0.60;;
18499;SDS011;9379;52.134;11.576;2023-08-01T03:02:16;1.33;;;1.20;;
18499;SDS011;9379;52.134;11.576;2023-08-01T03:04:44;1.15;;;0.80;;
18499;SDS011;9379;52.134;11.576;2023-08-01T03:07:12;1.38;;;0.95;;
18499;SDS011;9379;52.134;11.576;2023-08-01T03:09:39;2.50;;;1.08;;
18499;SDS011;9379;52.134;11.576;2023-08-01T03:12:07;0.63;;;0.63;;
18499;SDS011;9379;52.134;11.576;2023-08-01T03:14:34;1.15;;;1.08;;
18499;SDS011;9379;52.134;11.576;2023-08-01T03:17:01;1.13;;;1.02;;
18499;SDS011;9379;52.134;11.576;2023-08-01T03:19:28;3.67;;;0.80;;
18499;SDS011;9379;52.134;11.576;2023-08-01T03:21:56;1.02;;;0.90;;
18499;SDS011;9379;52.134;11.576;2023-08-01T03:24:23;0.80;;;0.73;;
18499;SDS011;9379;52.134;11.576;2023-08-01T03:26:50;1.50;;;0.70;;
18499;SDS011;9379;52.134;11.576;2023-08-01T03:29:17;1.55;;;1.02;;
18499;SDS011;9379;52.134;11.576;2023-08-01T03:31:43;1.50;;;0.82;;
18499;SDS011;9379;52.134;11.576;2023-08-01T03:34:10;1.02;;;0.80;;
18499;SDS011;9379;52.134;11.576;2023-08-01T03:36:38;4.03;;;0.73;;
18499;SDS011;9379;52.134;11.576;2023-08-01T03:39:06;0.98;;;0.60;;
18499;SDS011;9379;52.134;11.576;2023-08-01T03:41:35;2.80;;;1.63;;
18499;SDS011;9379;52.134;11.576;2023-08-01T03:44:02;0.43;;;0.43;;
18499;SDS011;9379;52.134;11.576;2023-08-01T03:46:29;1.08;;;0.93;;
18499;SDS011;9379;52.134;11.576;2023-08-01T03:48:56;4.55;;;1.00;;
18499;SDS011;9379;52.134;11.576;2023-08-01T03:51:22;0.75;;;0.75;;
18499;SDS011;9379;52.134;11.576;2023-08-01T03:53:49;1.13;;;0.82;;
18499;SDS011;9379;52.134;11.576;2023-08-01T03:56:17;2.30;;;1.33;;
18499;SDS011;9379;52.134;11.576;2023-08-01T03:58:44;0.80;;;0.80;;
18499;SDS011;9379;52.134;11.576;2023-08-01T04:01:11;1.10;;;1.05;;
18499;SDS011;9379;52.134;11.576;2023-08-01T04:03:38;1.30;;;1.20;;
18499;SDS011;9379;52.134;11.576;2023-08-01T04:06:04;0.73;;;0.73;;
18499;SDS011;9379;52.134;11.576;2023-08-01T04:08:31;1.17;;;1.00;;
18499;SDS011;9379;52.134;11.576;2023-08-01T04:10:58;1.02;;;1.00;;
18499;SDS011;9379;52.134;11.576;2023-08-01T04:13:26;1.90;;;1.30;;
18499;SDS011;9379;52.134;11.576;2023-08-01T04:15:53;1.27;;;1.17;;
18499;SDS011;9379;52.134;11.576;2023-08-01T04:18:20;0.80;;;0.80;;
18499;SDS011;9379;52.134;11.576;2023-08-01T04:20:46;1.85;;;1.05;;
18499;SDS011;9379;52.134;11.576;2023-08-01T04:23:13;0.82;;;0.70;;
18499;SDS011;9379;52.134;11.576;2023-08-01T04:25:40;1.15;;;1.05;;
18499;SDS011;9379;52.134;11.576;2023-08-01T04:28:07;0.45;;;0.45;;
18499;SDS011;9379;52.134;11.576;2023-08-01T04:30:35;0.80;;;0.80;;
18499;SDS011;9379;52.134;11.576;2023-08-01T04:33:03;0.95;;;0.93;;
18499;SDS011;9379;52.134;11.576;2023-08-01T04:35:30;1.98;;;1.88;;
18499;SDS011;9379;52.134;11.576;2023-08-01T04:37:57;1.40;;;1.00;;
18499;SDS011;9379;52.134;11.576;2023-08-01T04:40:26;1.77;;;1.63;;
18499;SDS011;9379;52.134;11.576;2023-08-01T04:42:54;1.23;;;0.95;;
18499;SDS011;9379;52.134;11.576;2023-08-01T04:45:21;1.33;;;0.73;;
18499;SDS011;9379;52.134;11.576;2023-08-01T04:47:49;1.33;;;1.23;;
18499;SDS011;9379;52.134;11.576;2023-08-01T04:50:16;0.80;;;0.70;;
18499;SDS011;9379;52.134;11.576;2023-08-01T04:52:42;0.80;;;0.80;;
18499;SDS011;9379;52.134;11.576;2023-08-01T04:55:09;1.00;;;0.82;;
18499;SDS011;9379;52.134;11.576;2023-08-01T04:57:36;0.80;;;0.80;;
18499;SDS011;9379;52.134;11.576;2023-08-01T05:00:03;2.03;;;1.08;;
18499;SDS011;9379;52.134;11.576;2023-08-01T05:02:30;1.10;;;1.00;;
18499;SDS011;9379;52.134;11.576;2023-08-01T05:04:58;1.50;;;1.13;;
18499;SDS011;9379;52.134;11.576;2023-08-01T05:07:25;1.00;;;0.88;;
18499;SDS011;9379;52.134;11.576;2023-08-01T05:09:52;0.63;;;0.63;;
18499;SDS011;9379;52.134;11.576;2023-08-01T05:12:19;5.78;;;1.02;;
18499;SDS011;9379;52.134;11.576;2023-08-01T05:14:45;0.52;;;0.52;;
18499;SDS011;9379;52.134;11.576;2023-08-01T05:17:12;0.75;;;0.75;;
18499;SDS011;9379;52.134;11.576;2023-08-01T05:19:39;1.17;;;0.98;;
18499;SDS011;9379;52.134;11.576;2023-08-01T05:22:07;1.85;;;1.58;;
18499;SDS011;9379;52.134;11.576;2023-08-01T05:24:34;0.75;;;0.75;;
18499;SDS011;9379;52.134;11.576;2023-08-01T05:27:01;2.70;;;1.27;;
18499;SDS011;9379;52.134;11.576;2023-08-01T05:29:27;1.02;;;0.73;;
18499;SDS011;9379;52.134;11.576;2023-08-01T05:31:54;1.15;;;1.10;;
18499;SDS011;9379;52.134;11.576;2023-08-01T05:34:21;0.93;;;0.75;;
18499;SDS011;9379;52.134;11.576;2023-08-01T05:36:48;6.55;;;1.25;;
18499;SDS011;9379;52.134;11.576;2023-08-01T05:39:17;3.03;;;1.38;;
18499;SDS011;9379;52.134;11.576;2023-08-01T05:41:43;2.65;;;1.08;;
18499;SDS011;9379;52.134;11.576;2023-08-01T05:44:10;1.45;;;1.08;;
18499;SDS011;9379;52.134;11.576;2023-08-01T05:46:37;2.08;;;0.90;;
18499;SDS011;9379;52.134;11.576;2023-08-01T05:49:04;0.93;;;0.90;;
18499;SDS011;9379;52.134;11.576;2023-08-01T05:51:31;0.80;;;0.70;;
18499;SDS011;9379;52.134;11.576;2023-08-01T05:53:57;1.00;;;0.88;;
18499;SDS011;9379;52.134;11.576;2023-08-01T05:56:26;1.05;;;0.98;;
18499;SDS011;9379;52.134;11.576;2023-08-01T05:58:52;1.20;;;0.85;;
18499;SDS011;9379;52.134;11.576;2023-08-01T06:01:19;2.25;;;1.17;;
18499;SDS011;9379;52.134;11.576;2023-08-01T06:03:46;1.63;;;1.52;;
18499;SDS011;9379;52.134;11.576;2023-08-01T06:06:13;1.52;;;0.90;;
18499;SDS011;9379;52.134;11.576;2023-08-01T06:08:40;1.00;;;1.00;;
18499;SDS011;9379;52.134;11.576;2023-08-01T06:11:07;3.15;;;0.70;;
18499;SDS011;9379;52.134;11.576;2023-08-01T06:13:35;2.28;;;2.08;;
18499;SDS011;9379;52.134;11.576;2023-08-01T06:16:02;0.63;;;0.60;;
18499;SDS011;9379;52.134;11.576;2023-08-01T06:18:29;1.17;;;1.00;;
18499;SDS011;9379;52.134;11.576;2023-08-01T06:20:55;1.05;;;1.00;;
18499;SDS011;9379;52.134;11.576;2023-08-01T06:23:22;0.90;;;0.60;;
18499;SDS011;9379;52.134;11.576;2023-08-01T06:25:49;0.50;;;0.50;;
18499;SDS011;9379;52.134;11.576;2023-08-01T06:28:16;2.30;;;0.73;;
18499;SDS011;9379;52.134;11.576;2023-08-01T06:30:44;3.50;;;1.02;;
18499;SDS011;9379;52.134;11.576;2023-08-01T06:33:11;0.90;;;0.88;;
18499;SDS011;9379;52.134;11.576;2023-08-01T06:35:38;1.15;;;0.98;;
18499;SDS011;9379;52.134;11.576;2023-08-01T06:38:05;0.47;;;0.47;;
18499;SDS011;9379;52.134;11.576;2023-08-01T06:40:32;0.57;;;0.50;;
18499;SDS011;9379;52.134;11.576;2023-08-01T06:42:58;0.50;;;0.50;;
18499;SDS011;9379;52.134;11.576;2023-08-01T06:45:25;0.40;;;0.35;;
18499;SDS011;9379;52.134;11.576;2023-08-01T06:47:53;0.60;;;0.43;;
18499;SDS011;9379;52.134;11.576;2023-08-01T06:50:20;0.93;;;0.80;;
18499;SDS011;9379;52.134;11.576;2023-08-01T06:52:46;1.05;;;0.95;;
18499;SDS011;9379;52.134;11.576;2023-08-01T06:55:13;0.57;;;0.57;;
18499;SDS011;9379;52.134;11.576;2023-08-01T06:57:40;0.20;;;0.20;;
18499;SDS011;9379;52.134;11.576;2023-08-01T07:00:07;0.63;;;0.60;;
18499;SDS011;9379;52.134;11.576;2023-08-01T07:02:35;1.23;;;0.82;;
18499;SDS011;9379;52.134;11.576;2023-08-01T07:05:04;0.20;;;0.20;;
18499;SDS011;9379;52.134;11.576;2023-08-01T07:07:31;0.38;;;0.38;;
18499;SDS011;9379;52.134;11.576;2023-08-01T07:09:58;0.30;;;0.20;;
18499;SDS011;9379;52.134;11.576;2023-08-01T07:12:25;0.35;;;0.30;;
18499;SDS011;9379;52.134;11.576;2023-08-01T07:14:52;0.35;;;0.35;;
18499;SDS011;9379;52.134;11.576;2023-08-01T07:17:18;0.30;;;0.30;;
18499;SDS011;9379;52.134;11.576;2023-08-01T07:19:45;0.77;;;0.35;;
18499;SDS011;9379;52.134;11.576;2023-08-01T07:22:13;0.65;;;0.55;;
18499;SDS011;9379;52.134;11.576;2023-08-01T07:24:40;3.90;;;0.30;;
18499;SDS011;9379;52.134;11.576;2023-08-01T07:27:07;0.82;;;0.45;;
18499;SDS011;9379;52.134;11.576;2023-08-01T07:29:33;0.43;;;0.30;;
18499;SDS011;9379;52.134;11.576;2023-08-01T07:32:00;0.80;;;0.35;;
18499;SDS011;9379;52.134;11.576;2023-08-01T07:34:27;0.45;;;0.45;;
18499;SDS011;9379;52.134;11.576;2023-08-01T07:36:54;0.22;;;0.22;;
18499;SDS011;9379;52.134;11.576;2023-08-01T07:39:22;3.17;;;0.30;;
18499;SDS011;9379;52.134;11.576;2023-08-01T07:41:49;0.20;;;0.20;;
18499;SDS011;9379;52.134;11.576;2023-08-01T07:44:16;0.20;;;0.20;;
18499;SDS011;9379;52.134;11.576;2023-08-01T07:46:42;0.35;;;0.32;;
18499;SDS011;9379;52.134;11.576;2023-08-01T07:49:09;0.30;;;0.20;;
18499;SDS011;9379;52.134;11.576;2023-08-01T07:51:36;0.50;;;0.45;;
18499;SDS011;9379;52.134;11.576;2023-08-01T07:54:03;0.25;;;0.20;;
18499;SDS011;9379;52.134;11.576;2023-08-01T07:56:31;0.43;;;0.43;;
18499;SDS011;9379;52.134;11.576;2023-08-01T07:58:57;0.30;;;0.30;;
18499;SDS011;9379;52.134;11.576;2023-08-01T08:01:24;0.30;;;0.30;;
18499;SDS011;9379;52.134;11.576;2023-08-01T08:03:51;0.98;;;0.73;;
18499;SDS011;9379;52.134;11.576;2023-08-01T08:06:18;0.65;;;0.57;;
18499;SDS011;9379;52.134;11.576;2023-08-01T08:08:46;0.40;;;0.40;;
18499;SDS011;9379;52.134;11.576;2023-08-01T08:11:13;0.50;;;0.50;;
18499;SDS011;9379;52.134;11.576;2023-08-01T08:13:42;0.68;;;0.40;;
18499;SDS011;9379;52.134;11.576;2023-08-01T08:16:09;0.73;;;0.55;;
18499;SDS011;9379;52.134;11.576;2023-08-01T08:18:35;0.40;;;0.40;;
18499;SDS011;9379;52.134;11.576;2023-08-01T08:21:02;0.60;;;0.60;;
18499;SDS011;9379;52.134;11.576;2023-08-01T08:23:29;0.40;;;0.40;;
18499;SDS011;9379;52.134;11.576;2023-08-01T08:25:56;0.50;;;0.40;;
18499;SDS011;9379;52.134;11.576;2023-08-01T08:28:27;0.38;;;0.35;;
18499;SDS011;9379;52.134;11.576;2023-08-01T08:30:57;0.50;;;0.50;;
18499;SDS011;9379;52.134;11.576;2023-08-01T08:33:24;0.22;;;0.20;;
18499;SDS011;9379;52.134;11.576;2023-08-01T08:35:51;0.40;;;0.30;;
18499;SDS011;9379;52.134;11.576;2023-08-01T08:38:18;0.40;;;0.40;;
18499;SDS011;9379;52.134;11.576;2023-08-01T08:40:51;0.52;;;0.52;;
18499;SDS011;9379;52.134;11.576;2023-08-01T08:43:26;0.70;;;0.70;;
18499;SDS011;9379;52.134;11.576;2023-08-01T08:45:53;0.50;;;0.40;;
18499;SDS011;9379;52.134;11.576;2023-08-01T08:48:23;0.63;;;0.57;;
18499;SDS011;9379;52.134;11.576;2023-08-01T08:50:52;0.50;;;0.50;;
18499;SDS011;9379;52.134;11.576;2023-08-01T08:53:20;0.30;;;0.30;;
18499;SDS011;9379;52.134;11.576;2023-08-01T08:55:48;0.50;;;0.40;;
18499;SDS011;9379;52.134;11.576;2023-08-01T08:58:15;1.67;;;1.35;;
18499;SDS011;9379;52.134;11.576;2023-08-01T09:00:42;0.60;;;0.50;;
18499;SDS011;9379;52.134;11.576;2023-08-01T09:03:11;1.17;;;0.73;;
18499;SDS011;9379;52.134;11.576;2023-08-01T09:05:40;0.52;;;0.45;;
18499;SDS011;9379;52.134;11.576;2023-08-01T09:08:14;0.70;;;0.70;;
18499;SDS011;9379;52.134;11.576;2023-08-01T09:10:44;0.60;;;0.52;;
18499;SDS011;9379;52.134;11.576;2023-08-01T09:13:10;1.05;;;0.98;;
18499;SDS011;9379;52.134;11.576;2023-08-01T09:15:37;2.35;;;1.15;;
18499;SDS011;9379;52.134;11.576;2023-08-01T09:18:07;1.95;;;1.27;;
18499;SDS011;9379;52.134;11.576;2023-08-01T09:20:40;1.20;;;1.10;;
18499;SDS011;9379;52.134;11.576;2023-08-01T09:23:08;3.53;;;2.92;;
18499;SDS011;9379;52.134;11.576;2023-08-01T09:25:36;3.22;;;2.85;;
18499;SDS011;9379;52.134;11.576;2023-08-01T09:28:03;4.03;;;2.22;;
18499;SDS011;9379;52.134;11.576;2023-08-01T09:30:45;7.22;;;5.85;;
18499;SDS011;9379;52.134;11.576;2023-08-01T09:33:12;2.88;;;2.63;;
18499;SDS011;9379;52.134;11.576;2023-08-01T09:35:40;2.15;;;1.90;;
18499;SDS011;9379;52.134;11.576;2023-08-01T09:38:09;1.98;;;1.88;;
18499;SDS011;9379;52.134;11.576;2023-08-01T09:40:37;2.78;;;2.40;;
18499;SDS011;9379;52.134;11.576;2023-08-01T09:43:03;4.35;;;3.42;;
18499;SDS011;9379;52.134;11.576;2023-08-01T09:45:30;3.28;;;2.65;;
18499;SDS011;9379;52.134;11.576;2023-08-01T09:47:59;2.47;;;2.28;;
18499;SDS011;9379;52.134;11.576;2023-08-01T09:50:26;7.03;;;2.63;;
18499;SDS011;9379;52.134;11.576;2023-08-01T09:52:54;8.70;;;3.13;;
18499;SDS011;9379;52.134;11.576;2023-08-01T09:55:24;3.85;;;3.17;;
18499;SDS011;9379;52.134;11.576;2023-08-01T09:57:53;2.53;;;2.33;;
18499;SDS011;9379;52.134;11.576;2023-08-01T10:00:25;6.15;;;2.75;;
18499;SDS011;9379;52.134;11.576;2023-08-01T10:02:52;2.75;;;2.55;;
18499;SDS011;9379;52.134;11.576;2023-08-01T10:05:19;5.22;;;2.97;;
18499;SDS011;9379;52.134;11.576;2023-08-01T10:07:47;6.50;;;3.33;;
18499;SDS011;9379;52.134;11.576;2023-08-01T10:10:18;5.65;;;2.28;;
18499;SDS011;9379;52.134;11.576;2023-08-01T10:12:46;2.58;;;2.38;;
18499;SDS011;9379;52.134;11.576;2023-08-01T10:15:15;4.30;;;3.30;;
18499;SDS011;9379;52.134;11.576;2023-08-01T10:17:42;2.83;;;2.45;;
18499;SDS011;9379;52.134;11.576;2023-08-01T10:20:10;2.97;;;2.78;;
18499;SDS011;9379;52.134;11.576;2023-08-01T10:22:38;3.75;;;3.00;;
18499;SDS011;9379;52.134;11.576;2023-08-01T10:25:06;2.58;;;2.22;;
18499;SDS011;9379;52.134;11.576;2023-08-01T10:27:36;1.67;;;1.40;;
18499;SDS011;9379;52.134;11.576;2023-08-01T10:30:03;2.92;;;2.33;;
18499;SDS011;9379;52.134;11.576;2023-08-01T10:32:31;3.00;;;2.80;;
18499;SDS011;9379;52.134;11.576;2023-08-01T10:34:59;3.65;;;2.97;;
18499;SDS011;9379;52.134;11.576;2023-08-01T10:37:27;3.30;;;2.05;;
18499;SDS011;9379;52.134;11.576;2023-08-01T10:40:05;4.45;;;2.53;;
18499;SDS011;9379;52.134;11.576;2023-08-01T10:42:38;4.43;;;3.30;;
18499;SDS011;9379;52.134;11.576;2023-08-01T10:45:06;3.25;;;3.00;;
18499;SDS011;9379;52.134;11.576;2023-08-01T10:47:33;5.40;;;4.45;;
18499;SDS011;9379;52.134;11.576;2023-08-01T10:50:00;4.10;;;3.70;;
18499;SDS011;9379;52.134;11.576;2023-08-01T10:52:28;3.72;;;3.42;;
18499;SDS011;9379;52.134;11.576;2023-08-01T10:54:55;6.18;;;3.67;;
18499;SDS011;9379;52.134;11.576;2023-08-01T10:57:23;4.97;;;2.33;;
18499;SDS011;9379;52.134;11.576;2023-08-01T10:59:51;4.20;;;3.35;;
18499;SDS011;9379;52.134;11.576;2023-08-01T11:02:19;3.33;;;2.60;;
18499;SDS011;9379;52.134;11.576;2023-08-01T11:04:54;5.70;;;2.38;;
18499;SDS011;9379;52.134;11.576;2023-08-01T11:07:21;2.15;;;1.95;;
18499;SDS011;9379;52.134;11.576;2023-08-01T11:09:48;2.60;;;2.40;;
18499;SDS011;9379;52.134;11.576;2023-08-01T11:12:15;3.55;;;2.90;;
18499;SDS011;9379;52.134;11.576;2023-08-01T11:14:42;2.75;;;2.55;;
18499;SDS011;9379;52.134;11.576;2023-08-01T11:17:11;2.42;;;2.17;;
18499;SDS011;9379;52.134;11.576;2023-08-01T11:19:39;3.75;;;2.08;;
18499;SDS011;9379;52.134;11.576;2023-08-01T11:22:09;2.40;;;2.08;;
18499;SDS011;9379;52.134;11.576;2023-08-01T11:24:36;1.58;;;1.48;;
18499;SDS011;9379;52.134;11.576;2023-08-01T11:27:03;2.13;;;1.95;;
18499;SDS011;9379;52.134;11.576;2023-08-01T11:29:30;3.85;;;2.97;;
18499;SDS011;9379;52.134;11.576;2023-08-01T11:32:04;1.77;;;1.67;;
18499;SDS011;9379;52.134;11.576;2023-08-01T11:34:40;4.63;;;2.95;;
18499;SDS011;9379;52.134;11.576;2023-08-01T11:37:09;2.05;;;1.67;;
18499;SDS011;9379;52.134;11.576;2023-08-01T11:39:36;2.25;;;1.65;;
18499;SDS011;9379;52.134;11.576;2023-08-01T11:42:03;3.80;;;1.10;;
18499;SDS011;9379;52.134;11.576;2023-08-01T11:44:30;3.38;;;2.13;;
18499;SDS011;9379;52.134;11.576;2023-08-01T11:46:57;4.30;;;1.63;;
18499;SDS011;9379;52.134;11.576;2023-08-01T11:49:25;1.77;;;1.42;;
18499;SDS011;9379;52.134;11.576;2023-08-01T11:51:53;1.48;;;1.38;;
18499;SDS011;9379;52.134;11.576;2023-08-01T11:54:20;3.78;;;2.55;;
18499;SDS011;9379;52.134;11.576;2023-08-01T11:56:46;1.40;;;1.20;;
18499;SDS011;9379;52.134;11.576;2023-08-01T11:59:14;1.25;;;1.10;;
18499;SDS011;9379;52.134;11.576;2023-08-01T12:01:42;1.98;;;1.30;;
18499;SDS011;9379;52.134;11.576;2023-08-01T12:04:10;1.85;;;1.58;;
18499;SDS011;9379;52.134;11.576;2023-08-01T12:06:37;2.50;;;1.80;;
18499;SDS011;9379;52.134;11.576;2023-08-01T12:09:08;1.65;;;1.00;;
18499;SDS011;9379;52.134;11.576;2023-08-01T12:11:36;1.90;;;1.63;;
18499;SDS011;9379;52.134;11.576;2023-08-01T12:14:04;1.30;;;1.20;;
18499;SDS011;9379;52.134;11.576;2023-08-01T12:16:33;3.28;;;1.90;;
18499;SDS011;9379;52.134;11.576;2023-08-01T12:19:00;3.90;;;1.83;;
18499;SDS011;9379;52.134;11.576;2023-08-01T12:21:27;3.83;;;1.52;;
18499;SDS011;9379;52.134;11.576;2023-08-01T12:23:53;14.35;;;1.70;;
18499;SDS011;9379;52.134;11.576;2023-08-01T12:26:22;3.45;;;1.90;;
18499;SDS011;9379;52.134;11.576;2023-08-01T12:28:49;3.15;;;1.75;;
18499;SDS011;9379;52.134;11.576;2023-08-01T12:31:16;3.67;;;2.22;;
18499;SDS011;9379;52.134;11.576;2023-08-01T12:33:43;1.58;;;1.48;;
18499;SDS011;9379;52.134;11.576;2023-08-01T12:36:10;1.08;;;0.88;;
18499;SDS011;9379;52.134;11.576;2023-08-01T12:38:37;1.25;;;1.15;;
18499;SDS011;9379;52.134;11.576;2023-08-01T12:41:07;1.90;;;1.38;;
18499;SDS011;9379;52.134;11.576;2023-08-01T12:43:36;1.45;;;1.35;;
18499;SDS011;9379;52.134;11.576;2023-08-01T12:46:03;0.95;;;0.82;;
18499;SDS011;9379;52.134;11.576;2023-08-01T12:48:30;1.63;;;0.98;;
18499;SDS011;9379;52.134;11.576;2023-08-01T12:50:57;4.32;;;1.98;;
18499;SDS011;9379;52.134;11.576;2023-08-01T12:53:24;1.77;;;1.65;;
18499;SDS011;9379;52.134;11.576;2023-08-01T12:55:51;4.63;;;1.20;;
18499;SDS011;9379;52.134;11.576;2023-08-01T12:58:18;2.58;;;1.10;;
18499;SDS011;9379;52.134;11.576;2023-08-01T13:00:46;1.55;;;1.30;;
18499;SDS011;9379;52.134;11.576;2023-08-01T13:03:13;1.00;;;0.90;;
18499;SDS011;9379;52.134;11.576;2023-08-01T13:05:40;3.60;;;1.10;;
18499;SDS011;9379;52.134;11.576;2023-08-01T13:08:08;1.20;;;1.10;;
18499;SDS011;9379;52.134;11.576;2023-08-01T13:10:36;1.30;;;1.20;;
18499;SDS011;9379;52.134;11.576;2023-08-01T13:13:04;0.95;;;0.88;;
18499;SDS011;9379;52.134;11.576;2023-08-01T13:15:31;3.70;;;1.15;;
18499;SDS011;9379;52.134;11.576;2023-08-01T13:17:59;0.82;;;0.80;;
18499;SDS011;9379;52.134;11.576;2023-08-01T13:20:26;1.23;;;1.10;;
18499;SDS011;9379;52.134;11.576;2023-08-01T13:22:52;1.42;;;1.33;;
18499;SDS011;9379;52.134;11.576;2023-08-01T13:25:19;1.77;;;1.45;;
18499;SDS011;9379;52.134;11.576;2023-08-01T13:27:46;1.58;;;1.48;;
18499;SDS011;9379;52.134;11.576;2023-08-01T13:30:13;0.80;;;0.80;;
18499;SDS011;9379;52.134;11.576;2023-08-01T13:32:42;0.90;;;0.90;;
18499;SDS011;9379;52.134;11.576;2023-08-01T13:35:11;2.80;;;1.80;;
18499;SDS011;9379;52.134;11.576;2023-08-01T13:37:37;0.85;;;0.85;;
18499;SDS011;9379;52.134;11.576;2023-08-01T13:40:05;3.50;;;1.38;;
18499;SDS011;9379;52.134;11.576;2023-08-01T13:42:32;0.95;;;0.90;;
18499;SDS011;9379;52.134;11.576;2023-08-01T13:44:59;0.70;;;0.70;;
18499;SDS011;9379;52.134;11.576;2023-08-01T13:47:26;0.70;;;0.63;;
18499;SDS011;9379;52.134;11.576;2023-08-01T13:49:53;1.13;;;0.93;;
18499;SDS011;9379;52.134;11.576;2023-08-01T13:52:21;1.30;;;1.08;;
18499;SDS011;9379;52.134;11.576;2023-08-01T13:54:48;0.80;;;0.70;;
18499;SDS011;9379;52.134;11.576;2023-08-01T13:57:15;7.93;;;1.52;;
18499;SDS011;9379;52.134;11.576;2023-08-01T13:59:41;3.45;;;1.10;;
18499;SDS011;9379;52.134;11.576;2023-08-01T14:02:08;3.55;;;1.27;;
18499;SDS011;9379;52.134;11.576;2023-08-01T14:04:35;2.08;;;1.50;;
18499;SDS011;9379;52.134;11.576;2023-08-01T14:07:02;1.70;;;0.90;;
18499;SDS011;9379;52.134;11.576;2023-08-01T14:09:30;7.10;;;1.40;;
18499;SDS011;9379;52.134;11.576;2023-08-01T14:11:57;1.80;;;1.70;;
18499;SDS011;9379;52.134;11.576;2023-08-01T14:14:24;5.00;;;1.70;;
18499;SDS011;9379;52.134;11.576;2023-08-01T14:16:51;4.50;;;1.30;;
18499;SDS011;9379;52.134;11.576;2023-08-01T14:19:17;0.82;;;0.82;;
18499;SDS011;9379;52.134;11.576;2023-08-01T14:21:46;1.50;;;1.33;;
18499;SDS011;9379;52.134;11.576;2023-08-01T14:24:13;4.93;;;1.67;;
18499;SDS011;9379;52.134;11.576;2023-08-01T14:26:41;1.42;;;1.33;;
18499;SDS011;9379;52.134;11.576;2023-08-01T14:29:07;4.22;;;1.52;;
18499;SDS011;9379;52.134;11.576;2023-08-01T14:31:34;0.95;;;0.95;;
18499;SDS011;9379;52.134;11.576;2023-08-01T14:34:01;3.63;;;1.17;;
18499;SDS011;9379;52.134;11.576;2023-08-01T14:36:27;1.02;;;0.90;;
18499;SDS011;9379;52.134;11.576;2023-08-01T14:38:54;1.73;;;1.63;;
18499;SDS011;9379;52.134;11.576;2023-08-01T14:41:22;1.15;;;1.05;;
18499;SDS011;9379;52.134;11.576;2023-08-01T14:43:50;2.53;;;1.80;;
18499;SDS011;9379;52.134;11.576;2023-08-01T14:46:16;1.30;;;1.20;;
18499;SDS011;9379;52.134;11.576;2023-08-01T14:48:43;2.55;;;1.90;;